Time;durP1;ratioP1;P1;durP2;ratioP2;P2;SDS_P1;SDS_P2;PMS_P1;PMS_P2;Temp;Humidity;BMP_temperature;BMP_pressure;BME280_temperature;BME280_humidity;BME280_pressure;Samples;Min_cycle;Max_cycle;Signal;HPM_P1;HPM_P2
2021/01/25 15:07:20;;;;;;;10.95;7.68;;;8.70;96.90;;;;;;5112994;27;20422;-91
2021/01/25 15:09:46;;;;;;;14.07;9.55;;;8.70;97.30;;;;;;5111955;28;20036;-91
2021/01/25 15:12:11;;;;;;;17.10;9.95;;;8.90;97.40;;;;;;5111673;28;20035;-92
2021/01/25 15:14:37;;;;;;;15.93;10.25;;;9.00;97.40;;;;;;5109863;28;20024;-91
2021/01/25 15:17:03;;;;;;;26.98;15.07;;;9.10;96.90;;;;;;5127023;28;20137;-94
2021/01/25 15:19:28;;;;;;;30.17;17.92;;;9.20;96.20;;;;;;5109199;28;20471;-91
2021/01/25 15:21:55;;;;;;;34.60;20.60;;;9.30;96.70;;;;;;5109804;28;20110;-93
2021/01/25 15:24:21;;;;;;;49.03;26.08;;;9.40;96.40;;;;;;5111887;28;20028;-92
2021/01/25 15:26:48;;;;;;;22.73;15.05;;;9.40;96.10;;;;;;5110956;28;20020;-92
2021/01/25 15:29:15;;;;;;;21.23;12.02;;;9.40;96.30;;;;;;5110947;28;20016;-90
2021/01/25 15:31:41;;;;;;;22.40;12.48;;;9.50;95.80;;;;;;5111048;28;20099;-90
2021/01/25 15:34:06;;;;;;;24.40;13.10;;;9.50;95.50;;;;;;5111566;28;20102;-92
2021/01/25 15:36:36;;;;;;;19.92;12.15;;;9.50;95.70;;;;;;5110970;28;20063;-91
2021/01/25 15:39:07;;;;;;;22.38;11.15;;;9.50;95.20;;;;;;5110014;28;20024;-91
2021/01/25 15:41:34;;;;;;;15.43;10.88;;;9.60;95.10;;;;;;5111349;28;20019;-91
2021/01/25 15:44:00;;;;;;;17.27;10.27;;;9.60;95.00;;;;;;5110961;28;20020;-93
2021/01/25 15:46:26;;;;;;;16.33;9.30;;;9.60;95.20;;;;;;5110971;28;20035;-91
2021/01/25 15:48:52;;;;;;;10.38;6.78;;;9.60;95.10;;;;;;5110809;28;20032;-91
2021/01/25 15:51:19;;;;;;;17.70;8.88;;;9.60;94.80;;;;;;5111170;28;20376;-92
2021/01/25 15:53:45;;;;;;;11.15;7.13;;;9.50;94.80;;;;;;5109537;28;20380;-91
2021/01/25 15:56:11;;;;;;;13.60;8.18;;;9.50;94.70;;;;;;5116447;28;20418;-91
2021/01/25 15:58:37;;;;;;;16.48;9.55;;;9.50;94.80;;;;;;5112740;28;20025;-91
2021/01/25 16:01:04;;;;;;;11.68;8.43;;;9.40;95.00;;;;;;5109527;28;20077;-88
2021/01/25 16:03:30;;;;;;;11.80;7.72;;;9.40;95.00;;;;;;5120391;28;20019;-91
2021/01/25 16:05:56;;;;;;;12.05;8.35;;;9.30;95.00;;;;;;5131109;27;20048;-89
2021/01/25 16:08:22;;;;;;;13.18;8.65;;;9.30;95.20;;;;;;5131213;27;20489;-91
2021/01/25 16:10:47;;;;;;;12.25;7.95;;;9.30;95.20;;;;;;5131088;27;20084;-89
2021/01/25 16:13:14;;;;;;;17.33;8.13;;;9.30;95.30;;;;;;5130438;27;20024;-90
2021/01/25 16:15:40;;;;;;;15.98;9.00;;;9.30;95.30;;;;;;5109532;28;20016;-88
2021/01/25 16:18:06;;;;;;;12.95;9.20;;;9.30;95.30;;;;;;5100203;28;20020;-89
2021/01/25 16:20:32;;;;;;;15.82;9.65;;;9.20;95.40;;;;;;5096781;28;20074;-90
2021/01/25 16:22:57;;;;;;;14.95;9.90;;;9.20;95.30;;;;;;5095546;28;20045;-90
2021/01/25 16:25:23;;;;;;;15.15;10.10;;;9.20;95.30;;;;;;5103198;28;20097;-91
2021/01/25 16:27:50;;;;;;;10.23;6.63;;;9.20;95.40;;;;;;5099833;28;20425;-90
2021/01/25 16:30:18;;;;;;;14.30;7.60;;;9.20;95.10;;;;;;5095032;28;20547;-91
2021/01/25 16:32:44;;;;;;;15.63;9.88;;;9.20;95.10;;;;;;5096516;28;20039;-91
2021/01/25 16:35:11;;;;;;;13.32;8.98;;;9.20;95.20;;;;;;5095847;28;20032;-92
2021/01/25 16:37:37;;;;;;;12.65;9.50;;;9.20;95.20;;;;;;5094591;28;20023;-92
2021/01/25 16:40:06;;;;;;;12.77;9.32;;;9.20;95.10;;;;;;5086130;28;20081;-93
2021/01/25 16:42:33;;;;;;;14.23;8.05;;;9.20;95.00;;;;;;5089088;28;20056;-93
2021/01/25 16:44:58;;;;;;;16.27;10.73;;;9.20;95.00;;;;;;5094483;28;20404;-92
2021/01/25 16:47:24;;;;;;;15.95;10.32;;;9.20;95.20;;;;;;5098144;28;20032;-93
2021/01/25 16:49:50;;;;;;;18.48;11.40;;;9.10;95.20;;;;;;5094576;28;20020;-93
2021/01/25 16:52:15;;;;;;;17.13;11.45;;;9.10;95.20;;;;;;5093948;28;20062;-93
2021/01/25 16:54:41;;;;;;;15.70;11.20;;;9.10;95.20;;;;;;5094636;28;20032;-92
2021/01/25 16:57:07;;;;;;;23.75;14.98;;;9.00;95.20;;;;;;5096169;28;20028;-93
2021/01/25 16:59:33;;;;;;;27.70;16.10;;;9.00;95.30;;;;;;5093871;28;20032;-91
2021/01/25 17:02:15;;;;;;;26.90;14.60;;;9.00;95.30;;;;;;5094875;28;20095;-91
2021/01/25 17:04:43;;;;;;;21.77;14.45;;;8.90;95.30;;;;;;5088980;28;20024;-92
2021/01/25 17:07:10;;;;;;;24.33;14.75;;;8.90;95.40;;;;;;5089506;28;20571;-92
2021/01/25 17:09:41;;;;;;;22.63;11.32;;;8.90;95.40;;;;;;5092749;28;20066;-92
2021/01/25 17:12:10;;;;;;;25.35;17.35;;;8.80;95.40;;;;;;5093357;28;20345;-93
2021/01/25 17:14:37;;;;;;;27.55;18.63;;;8.80;95.50;;;;;;5094921;28;20028;-92
2021/01/25 17:17:04;;;;;;;27.05;19.67;;;8.70;95.60;;;;;;5092448;28;20455;-90
2021/01/25 17:19:30;;;;;;;34.13;20.45;;;8.70;95.60;;;;;;5092369;28;20051;-91
2021/01/25 17:21:57;;;;;;;28.38;17.83;;;8.70;95.70;;;;;;5092864;28;20394;-91
2021/01/25 17:24:24;;;;;;;29.95;21.00;;;8.70;95.70;;;;;;5092817;28;20047;-93
2021/01/25 17:26:51;;;;;;;31.27;20.83;;;8.70;95.70;;;;;;5094496;28;20024;-95
2021/01/25 17:29:40;;;;;;;27.92;20.30;;;8.60;95.70;;;;;;5090234;28;20028;-91
2021/01/25 17:32:07;;;;;;;22.95;14.90;;;8.60;95.70;;;;;;5094208;28;20064;-94
2021/01/25 17:34:33;;;;;;;30.85;21.33;;;8.60;95.80;;;;;;5086980;28;20110;-96
2021/01/25 17:36:59;;;;;;;30.05;20.77;;;8.60;95.80;;;;;;5098504;28;20433;-91
2021/01/25 17:39:25;;;;;;;28.92;20.73;;;8.60;95.70;;;;;;5093986;28;20060;-92
2021/01/25 17:41:51;;;;;;;33.58;19.38;;;8.60;95.70;;;;;;5093044;28;20028;-93
2021/01/25 17:44:35;;;;;;;32.10;21.55;;;8.60;95.70;;;;;;5092643;28;20031;-94
2021/01/25 17:47:01;;;;;;;37.13;21.50;;;8.60;95.70;;;;;;5092368;28;20392;-92
2021/01/25 17:49:26;;;;;;;27.52;17.33;;;8.60;95.70;;;;;;5094884;28;20020;-94
2021/01/25 17:51:52;;;;;;;31.83;21.08;;;8.60;95.70;;;;;;5093155;28;20063;-93
2021/01/25 17:54:18;;;;;;;60.10;31.73;;;8.60;95.80;;;;;;5093153;28;20028;-96
2021/01/25 17:56:43;;;;;;;35.45;19.75;;;8.60;95.80;;;;;;5093384;28;20028;-94
2021/01/25 18:05:50;;;;;;;43.78;26.65;;;8.60;95.70;;;;;;5095798;28;20074;-91
2021/01/25 18:08:17;;;;;;;34.50;18.75;;;8.60;95.70;;;;;;5092197;28;20407;-91
2021/01/25 18:10:43;;;;;;;23.67;16.45;;;8.60;95.70;;;;;;5092354;28;20032;-93
2021/01/25 18:13:08;;;;;;;24.42;15.35;;;8.60;95.70;;;;;;5094473;28;20016;-93
2021/01/25 18:15:35;;;;;;;32.55;22.90;;;8.60;95.60;;;;;;5090070;28;20028;-94
2021/01/25 18:18:04;;;;;;;38.03;27.58;;;8.60;95.60;;;;;;5095655;28;20100;-91
2021/01/25 18:20:30;;;;;;;29.08;20.80;;;8.60;95.60;;;;;;5092718;28;20112;-94
2021/01/25 18:22:56;;;;;;;25.10;14.95;;;8.60;95.50;;;;;;5094730;28;20422;-92
2021/01/25 18:25:22;;;;;;;32.42;20.98;;;8.60;95.50;;;;;;5092241;28;20115;-93
2021/01/25 18:27:48;;;;;;;42.38;31.55;;;8.50;95.60;;;;;;5092006;28;20119;-92
2021/01/25 18:30:20;;;;;;;35.20;24.33;;;8.50;95.60;;;;;;5088284;28;20446;-91
2021/01/25 18:32:47;;;;;;;36.55;23.98;;;8.50;95.70;;;;;;5092505;28;20048;-92
2021/01/25 18:35:15;;;;;;;42.47;28.73;;;8.50;95.70;;;;;;5087197;28;20452;-94
2021/01/25 18:37:41;;;;;;;28.42;19.88;;;8.50;95.80;;;;;;5093650;28;20062;-95
2021/01/25 18:40:07;;;;;;;27.63;18.65;;;8.50;95.90;;;;;;5091371;28;20016;-93
2021/01/25 18:42:33;;;;;;;29.13;17.63;;;8.50;95.90;;;;;;5092517;28;20087;-90
2021/01/25 18:45:00;;;;;;;23.40;18.35;;;8.50;96.00;;;;;;5093923;28;20054;-93
2021/01/25 18:47:28;;;;;;;20.52;13.52;;;8.50;96.00;;;;;;5092925;28;20075;-93
2021/01/25 18:49:53;;;;;;;19.10;11.80;;;8.50;96.00;;;;;;5092666;28;20016;-93
2021/01/25 18:52:19;;;;;;;20.42;13.35;;;8.60;95.90;;;;;;5090932;28;20069;-93
2021/01/25 18:54:45;;;;;;;19.42;13.52;;;8.60;95.90;;;;;;5089965;28;20048;-92
2021/01/25 18:57:10;;;;;;;19.67;12.00;;;8.60;95.90;;;;;;5090293;28;20039;-92
2021/01/25 18:59:36;;;;;;;19.52;13.23;;;8.60;95.70;;;;;;5092134;28;20388;-94
2021/01/25 19:02:03;;;;;;;19.98;14.15;;;8.70;95.80;;;;;;5090856;28;20082;-93
2021/01/25 19:04:29;;;;;;;19.25;13.32;;;8.70;95.80;;;;;;5092304;28;20024;-93
2021/01/25 19:06:54;;;;;;;18.92;11.95;;;8.70;95.80;;;;;;5091352;28;20059;-91
2021/01/25 19:09:20;;;;;;;21.63;12.00;;;8.70;95.90;;;;;;5094496;28;20028;-93
2021/01/25 19:11:48;;;;;;;18.30;11.68;;;8.70;95.70;;;;;;5093997;28;20027;-94
2021/01/25 19:14:14;;;;;;;16.90;9.23;;;8.70;95.60;;;;;;5088913;28;20123;-90
2021/01/25 19:16:39;;;;;;;16.60;10.98;;;8.80;95.50;;;;;;5097326;28;20480;-94
2021/01/25 19:19:05;;;;;;;16.20;10.95;;;8.80;95.50;;;;;;5092802;28;20048;-90
2021/01/25 19:21:31;;;;;;;16.38;11.30;;;8.80;95.60;;;;;;5093420;28;20031;-93
2021/01/25 19:23:57;;;;;;;13.27;8.77;;;8.80;95.50;;;;;;5100615;28;20043;-89
2021/01/25 19:26:40;;;;;;;14.68;11.10;;;8.80;95.40;;;;;;5088293;28;20041;-92
2021/01/25 19:29:06;;;;;;;16.85;11.98;;;8.80;95.40;;;;;;5092960;28;20032;-92
2021/01/25 19:31:34;;;;;;;16.50;10.07;;;8.80;95.50;;;;;;5095544;28;20093;-92
2021/01/25 19:34:00;;;;;;;17.58;12.35;;;8.80;95.50;;;;;;5092293;28;20024;-93
2021/01/25 19:36:26;;;;;;;16.85;11.30;;;8.80;95.50;;;;;;5094183;28;20024;-94
2021/01/25 19:38:53;;;;;;;13.93;10.07;;;8.80;95.40;;;;;;5079179;28;20181;-90
2021/01/25 19:41:19;;;;;;;13.27;10.00;;;8.80;95.30;;;;;;5073664;28;20022;-91
2021/01/25 19:43:44;;;;;;;15.43;10.75;;;8.80;95.20;;;;;;5093909;28;20020;-94
2021/01/25 19:46:10;;;;;;;15.52;10.55;;;8.80;95.40;;;;;;5109921;28;20036;-93
2021/01/25 19:48:36;;;;;;;14.45;10.68;;;8.80;95.10;;;;;;5085150;28;20036;-93
2021/01/25 19:51:02;;;;;;;16.17;10.77;;;8.80;95.20;;;;;;5096320;28;20119;-93
2021/01/25 19:53:30;;;;;;;19.38;12.20;;;8.80;95.10;;;;;;5093143;28;20066;-93
2021/01/25 19:55:55;;;;;;;18.05;12.85;;;8.80;95.10;;;;;;5088203;28;20021;-93
2021/01/25 19:58:21;;;;;;;15.45;8.80;;;8.80;95.20;;;;;;5078381;28;20865;-93
2021/01/25 20:00:49;;;;;;;16.38;11.20;;;8.80;95.10;;;;;;5095306;28;20070;-92
2021/01/25 20:03:17;;;;;;;18.65;12.23;;;8.80;95.20;;;;;;5087779;28;20024;-93
2021/01/25 20:05:43;;;;;;;18.65;11.30;;;8.70;95.20;;;;;;5095929;28;20562;-93
2021/01/25 20:08:09;;;;;;;18.90;12.82;;;8.70;95.20;;;;;;5093514;28;20108;-92
2021/01/25 22:07:22;;;;;;;27.38;16.52;;;5.00;98.70;;;;;;5070366;28;20407;-89
2021/01/25 22:09:49;;;;;;;31.08;22.05;;;5.00;99.30;;;;;;5070806;28;20105;-91
